Time;durP1;ratioP1;P1;durP2;ratioP2;P2;SDS_P1;SDS_P2;PMS_P1;PMS_P2;Temp;Humidity;BMP_temperature;BMP_pressure;BME280_temperature;BME280_humidity;BME280_pressure;Samples;Min_cycle;Max_cycle;Signal;HPM_P1;HPM_P2
2023/11/02 00:00:32;;;;;;;;;;;;;;;25.44;38.16;98347.56;4215538;28;19963;-57
2023/11/02 00:02:34;;;;;;;;;;;;;;;25.40;38.11;98342.81;4215479;28;20370;-58
2023/11/02 00:04:36;;;;;;;;;;;;;;;25.36;38.48;98327.06;4214640;28;19931;-60
2023/11/02 00:06:38;;;;;;;;;;;;;;;25.35;38.27;98316.50;4215616;28;19932;-59
2023/11/02 00:08:55;;;;;;;;;;;;;;;25.35;38.51;98313.81;4215229;28;20007;-59
2023/11/02 00:10:57;;;;;;;;;;;;;;;25.40;38.37;98295.22;4215316;28;19924;-59
2023/11/02 00:13:00;;;;;;;;;;;;;;;25.42;38.41;98303.06;4215025;28;19924;-61
2023/11/02 00:15:02;;;;;;;;;;;;;;;25.42;38.47;98268.09;4215586;28;20023;-62
2023/11/02 00:17:15;;;;;;;;;;;;;;;25.42;38.31;98260.84;4215352;28;19935;-62
2023/11/02 00:19:16;;;;;;;;;;;;;;;25.40;38.28;98267.50;4215376;28;19977;-59
2023/11/02 00:21:26;;;;;;;;;;;;;;;25.40;38.40;98235.19;4215331;28;19982;-62
2023/11/02 00:23:35;;;;;;;;;;;;;;;25.36;38.48;98207.84;4215323;28;19963;-62
2023/11/02 00:25:46;;;;;;;;;;;;;;;25.34;38.38;98189.22;4215314;28;20347;-59
2023/11/02 00:27:47;;;;;;;;;;;;;;;25.32;38.51;98193.16;4214960;28;19962;-61
2023/11/02 00:29:49;;;;;;;;;;;;;;;25.30;38.63;98176.41;4215269;28;19961;-59
2023/11/02 00:31:50;;;;;;;;;;;;;;;25.29;38.46;98154.06;4214960;28;19924;-59
2023/11/02 00:33:52;;;;;;;;;;;;;;;25.29;38.66;98166.69;4214999;28;20313;-59
2023/11/02 00:35:53;;;;;;;;;;;;;;;25.30;38.33;98127.97;4215119;28;20361;-58
2023/11/02 00:37:56;;;;;;;;;;;;;;;25.32;38.31;98104.38;4214905;28;20339;-59
2023/11/02 00:39:57;;;;;;;;;;;;;;;25.35;38.56;98101.28;4215115;28;20005;-59
2023/11/02 00:41:59;;;;;;;;;;;;;;;25.33;38.42;98092.59;4214608;28;19928;-62
2023/11/02 00:44:01;;;;;;;;;;;;;;;25.30;38.62;98055.34;4214845;28;19925;-59
2023/11/02 00:46:03;;;;;;;;;;;;;;;25.30;38.51;98056.19;4215112;28;19931;-59
2023/11/02 00:48:13;;;;;;;;;;;;;;;25.29;38.36;98033.00;4196886;28;19960;-60
2023/11/02 00:50:34;;;;;;;;;;;;;;;25.26;38.67;98009.22;4214675;28;20333;-59
2023/11/02 00:52:36;;;;;;;;;;;;;;;25.23;38.27;97939.72;4213677;28;19931;-60
2023/11/02 00:54:37;;;;;;;;;;;;;;;25.22;38.38;97915.75;4214731;28;20022;-59
2023/11/02 00:56:39;;;;;;;;;;;;;;;25.20;38.34;97930.22;4196360;28;19928;-61
2023/11/02 00:58:43;;;;;;;;;;;;;;;25.20;38.44;97959.81;4214695;28;20469;-59
2023/11/02 01:00:52;;;;;;;;;;;;;;;25.22;38.71;97927.31;4214532;28;19967;-58
2023/11/02 01:02:53;;;;;;;;;;;;;;;25.24;38.49;97921.72;4214731;28;20286;-59
2023/11/02 01:04:55;;;;;;;;;;;;;;;25.25;38.52;97878.47;4214799;28;20300;-61
2023/11/02 01:06:56;;;;;;;;;;;;;;;25.26;38.30;97834.38;4214708;28;19939;-59
2023/11/02 01:08:58;;;;;;;;;;;;;;;25.24;38.52;97798.81;4214246;28;20015;-59
2023/11/02 01:11:01;;;;;;;;;;;;;;;25.19;38.21;97756.44;4214331;28;20261;-58
2023/11/02 01:13:10;;;;;;;;;;;;;;;25.19;38.22;97715.31;4214526;28;20335;-60
2023/11/02 01:15:29;;;;;;;;;;;;;;;25.17;38.57;97685.91;4214117;28;19924;-60
2023/11/02 01:17:32;;;;;;;;;;;;;;;25.16;38.53;97676.19;4214155;28;19930;-59
2023/11/02 01:19:37;;;;;;;;;;;;;;;25.15;38.50;97645.00;4214364;28;19964;-60
2023/11/02 01:21:39;;;;;;;;;;;;;;;25.16;38.57;97627.78;4196251;28;19964;-60
2023/11/02 01:23:41;;;;;;;;;;;;;;;25.20;38.27;97688.16;4214317;28;19963;-60
2023/11/02 01:25:50;;;;;;;;;;;;;;;25.20;38.40;97700.78;4213771;28;19928;-60
2023/11/02 01:28:06;;;;;;;;;;;;;;;25.22;38.20;97704.06;4214230;28;19924;-59
2023/11/02 01:30:10;;;;;;;;;;;;;;;25.22;38.32;97666.44;4214245;28;20385;-62
2023/11/02 01:32:12;;;;;;;;;;;;;;;25.19;38.54;97651.56;4213975;28;19940;-60
2023/11/02 01:34:23;;;;;;;;;;;;;;;25.18;38.43;97679.50;4214062;28;19924;-59
2023/11/02 01:36:29;;;;;;;;;;;;;;;25.17;38.34;97720.88;4214071;28;19924;-62
2023/11/02 01:38:38;;;;;;;;;;;;;;;25.15;38.55;97697.94;4214326;28;19946;-61
2023/11/02 01:40:51;;;;;;;;;;;;;;;25.13;38.30;97657.84;4213509;28;19930;-61
2023/11/02 01:42:54;;;;;;;;;;;;;;;25.11;38.47;97622.28;4196096;28;19929;-60
2023/11/02 01:45:03;;;;;;;;;;;;;;;25.11;38.28;97651.84;4196052;28;20390;-59
2023/11/02 01:47:22;;;;;;;;;;;;;;;25.11;38.53;97648.34;4214116;28;19928;-61
2023/11/02 01:49:43;;;;;;;;;;;;;;;25.08;38.42;97573.50;4213618;28;20003;-61
2023/11/02 01:52:08;;;;;;;;;;;;;;;25.09;38.26;97597.47;4213538;28;19963;-62
2023/11/02 01:54:17;;;;;;;;;;;;;;;25.15;38.45;97585.00;4203385;28;19928;-60
2023/11/02 01:56:19;;;;;;;;;;;;;;;25.13;38.55;97563.72;4213939;28;19924;-60
2023/11/02 01:58:27;;;;;;;;;;;;;;;25.13;38.45;97542.22;4213742;28;19928;-60
2023/11/02 02:00:39;;;;;;;;;;;;;;;25.10;38.41;97520.34;4213818;28;19924;-61
2023/11/02 02:02:46;;;;;;;;;;;;;;;25.11;38.35;97554.25;4213773;28;19934;-60
2023/11/02 02:04:58;;;;;;;;;;;;;;;25.12;38.61;97550.50;4213850;28;19928;-60
2023/11/02 02:07:19;;;;;;;;;;;;;;;25.13;38.35;97571.78;4213526;28;19930;-60
2023/11/02 02:09:43;;;;;;;;;;;;;;;25.11;38.41;97538.13;4213519;28;19993;-60
2023/11/02 02:11:56;;;;;;;;;;;;;;;25.13;38.47;97531.44;4188798;28;20439;-60
2023/11/02 02:14:03;;;;;;;;;;;;;;;25.13;38.47;97485.75;4195792;28;20275;-61
2023/11/02 02:16:17;;;;;;;;;;;;;;;25.20;38.28;97489.16;4213635;28;19924;-60
2023/11/02 02:18:21;;;;;;;;;;;;;;;25.16;38.05;97496.03;4213714;28;19967;-59
2023/11/02 02:20:27;;;;;;;;;;;;;;;25.12;38.48;97454.50;4213615;28;20315;-60
2023/11/02 02:22:31;;;;;;;;;;;;;;;25.11;38.40;97452.06;4213463;28;19978;-61
2023/11/02 02:24:41;;;;;;;;;;;;;;;25.11;38.30;97434.03;4213316;28;19928;-60
2023/11/02 02:26:52;;;;;;;;;;;;;;;25.11;38.53;97455.56;4213948;28;19924;-59
2023/11/02 02:29:11;;;;;;;;;;;;;;;25.11;38.29;97452.88;4216926;28;19924;-59
2023/11/02 02:31:27;;;;;;;;;;;;;;;25.14;38.41;97454.28;4216979;28;19935;-60
2023/11/02 02:33:51;;;;;;;;;;;;;;;25.15;38.23;97459.44;4216919;28;20329;-60
2023/11/02 02:35:59;;;;;;;;;;;;;;;25.16;38.18;97457.56;4216262;28;20003;-59
2023/11/02 02:38:06;;;;;;;;;;;;;;;25.17;38.15;97456.53;4216603;28;20415;-59
2023/11/02 02:40:12;;;;;;;;;;;;;;;25.18;38.26;97477.78;4216976;28;19924;-60
2023/11/02 02:42:17;;;;;;;;;;;;;;;25.11;38.08;97425.97;4216776;28;19970;-59
2023/11/02 02:44:21;;;;;;;;;;;;;;;25.15;38.52;97453.22;4216820;28;19958;-60
2023/11/02 02:46:23;;;;;;;;;;;;;;;25.13;38.41;97433.81;4216696;28;19947;-59
2023/11/02 02:48:25;;;;;;;;;;;;;;;25.11;38.42;97434.03;4216564;28;20395;-59
2023/11/02 02:50:28;;;;;;;;;;;;;;;25.09;38.17;97430.75;4216766;28;20393;-60
2023/11/02 02:52:31;;;;;;;;;;;;;;;25.09;38.17;97438.81;4216351;28;19967;-60
2023/11/02 02:54:35;;;;;;;;;;;;;;;25.11;38.46;97415.22;4216507;28;19932;-60
2023/11/02 02:56:40;;;;;;;;;;;;;;;25.12;38.33;97433.00;4216368;28;19924;-60
2023/11/02 02:58:50;;;;;;;;;;;;;;;25.12;38.40;97416.06;4216630;28;20348;-61
2023/11/02 03:00:52;;;;;;;;;;;;;;;25.14;38.30;97411.25;4216377;28;19956;-60
2023/11/02 03:02:57;;;;;;;;;;;;;;;25.15;38.40;97404.81;4216462;28;20393;-60
2023/11/02 03:04:59;;;;;;;;;;;;;;;25.15;38.42;97405.66;4216496;28;19977;-59
2023/11/02 03:07:01;;;;;;;;;;;;;;;25.14;38.36;97419.31;4216183;28;19955;-60
2023/11/02 03:09:04;;;;;;;;;;;;;;;25.13;38.09;97407.75;4216203;28;19924;-60
2023/11/02 03:11:07;;;;;;;;;;;;;;;25.09;38.42;97420.00;4216388;28;19927;-60
2023/11/02 03:13:23;;;;;;;;;;;;;;;25.05;38.37;97397.31;4216389;28;20019;-60
2023/11/02 03:15:28;;;;;;;;;;;;;;;25.05;38.40;97405.41;4216181;28;20347;-60
2023/11/02 03:17:39;;;;;;;;;;;;;;;25.04;38.05;97372.31;4216055;28;19928;-60
2023/11/02 03:19:45;;;;;;;;;;;;;;;25.08;38.32;97378.06;4216298;28;19924;-60
2023/11/02 03:21:46;;;;;;;;;;;;;;;25.11;38.38;97374.09;4197709;28;20413;-59
2023/11/02 03:23:54;;;;;;;;;;;;;;;25.10;38.29;97391.25;4216092;28;20292;-60
2023/11/02 03:25:56;;;;;;;;;;;;;;;25.09;37.99;97368.91;4215977;28;20385;-60
2023/11/02 03:27:57;;;;;;;;;;;;;;;25.11;38.08;97357.94;4216054;28;19924;-60
2023/11/02 03:30:06;;;;;;;;;;;;;;;25.11;38.14;97360.63;4216339;28;20321;-59
2023/11/02 03:32:22;;;;;;;;;;;;;;;25.12;38.23;97367.66;4216056;28;20286;-60
2023/11/02 03:34:38;;;;;;;;;;;;;;;25.09;38.00;97368.09;4216241;28;19932;-60
2023/11/02 03:36:40;;;;;;;;;;;;;;;25.07;38.31;97354.91;4215844;28;20281;-60
2023/11/02 03:38:47;;;;;;;;;;;;;;;25.07;38.19;97392.56;4215623;28;19974;-60
2023/11/02 03:41:04;;;;;;;;;;;;;;;25.06;38.02;97382.84;4216097;28;19971;-60
2023/11/02 03:43:10;;;;;;;;;;;;;;;25.04;38.19;97371.47;4216147;28;19924;-60
2023/11/02 03:45:14;;;;;;;;;;;;;;;25.02;37.95;97360.97;4215814;28;20157;-60
2023/11/02 03:47:16;;;;;;;;;;;;;;;25.01;37.73;97375.47;4215801;28;19924;-60
2023/11/02 03:49:29;;;;;;;;;;;;;;;25.02;38.03;97382.47;4215578;28;19924;-60
2023/11/02 03:51:37;;;;;;;;;;;;;;;25.05;38.07;97386.56;4215508;28;20390;-59
2023/11/02 03:53:38;;;;;;;;;;;;;;;25.04;37.78;97387.63;4215443;28;19924;-60
2023/11/02 03:55:58;;;;;;;;;;;;;;;25.03;37.77;97386.81;4215640;28;19924;-60
2023/11/02 03:58:07;;;;;;;;;;;;;;;25.01;37.84;97362.00;4215575;28;19926;-59
2023/11/02 04:00:11;;;;;;;;;;;;;;;25.01;37.92;97367.38;4215738;28;19995;-60
2023/11/02 04:02:22;;;;;;;;;;;;;;;25.02;37.53;97370.91;4215484;28;19928;-60
2023/11/02 04:04:40;;;;;;;;;;;;;;;25.04;37.66;97360.72;4215364;28;19924;-60
2023/11/02 04:06:42;;;;;;;;;;;;;;;25.03;37.86;97384.13;4215262;28;19952;-59
2023/11/02 04:08:46;;;;;;;;;;;;;;;25.00;37.92;97356.88;4215248;28;19924;-59
2023/11/02 04:10:57;;;;;;;;;;;;;;;25.00;37.80;97406.06;4215317;28;20014;-60
2023/11/02 04:13:08;;;;;;;;;;;;;;;25.02;37.84;97416.63;4215181;28;19924;-59
2023/11/02 04:15:13;;;;;;;;;;;;;;;24.98;37.83;97400.13;4215173;28;20352;-59
2023/11/02 04:17:15;;;;;;;;;;;;;;;24.97;37.61;97394.97;4215175;28;19938;-60
2023/11/02 04:19:16;;;;;;;;;;;;;;;24.95;37.99;97336.06;4214856;28;20070;-61
2023/11/02 04:21:18;;;;;;;;;;;;;;;24.96;37.75;97355.69;4215203;28;20011;-61
2023/11/02 04:23:20;;;;;;;;;;;;;;;24.94;37.78;97338.97;4215375;28;20308;-61
2023/11/02 04:25:22;;;;;;;;;;;;;;;24.90;37.79;97343.16;4215186;28;19928;-59
2023/11/02 04:27:24;;;;;;;;;;;;;;;24.91;37.98;97336.75;4214993;28;19928;-60
2023/11/02 04:29:25;;;;;;;;;;;;;;;24.94;37.65;97334.41;4215180;28;20405;-60
2023/11/02 04:31:27;;;;;;;;;;;;;;;24.96;37.92;97336.88;4215124;28;19924;-60
2023/11/02 04:33:29;;;;;;;;;;;;;;;24.95;37.78;97316.44;4214893;28;19930;-60
2023/11/02 04:35:31;;;;;;;;;;;;;;;24.98;37.79;97329.41;4214944;28;19947;-59
2023/11/02 04:37:32;;;;;;;;;;;;;;;25.00;37.67;97324.63;4215246;28;19928;-60
2023/11/02 04:39:34;;;;;;;;;;;;;;;24.99;37.51;97323.78;4215166;28;19924;-60
2023/11/02 04:41:35;;;;;;;;;;;;;;;25.01;37.57;97321.69;4215143;28;19964;-61
2023/11/02 04:43:37;;;;;;;;;;;;;;;24.99;37.50;97312.22;4215030;28;19931;-60
2023/11/02 04:45:39;;;;;;;;;;;;;;;24.98;37.47;97321.34;4196746;28;19925;-59
2023/11/02 04:47:40;;;;;;;;;;;;;;;24.95;37.54;97301.13;4214915;28;19924;-59
2023/11/02 04:49:42;;;;;;;;;;;;;;;24.96;37.58;97312.66;4213394;28;20007;-60
2023/11/02 04:51:57;;;;;;;;;;;;;;;24.95;37.51;97311.88;4214924;28;20343;-59
2023/11/02 04:53:58;;;;;;;;;;;;;;;24.99;37.66;97313.03;4214730;28;19924;-58
2023/11/02 04:56:00;;;;;;;;;;;;;;;25.00;37.21;97322.72;4214662;28;19924;-60
2023/11/02 04:58:01;;;;;;;;;;;;;;;25.02;37.44;97312.56;4214551;28;19938;-59
2023/11/02 05:00:03;;;;;;;;;;;;;;;25.06;37.54;97315.63;4214787;28;19963;-59
2023/11/02 05:02:05;;;;;;;;;;;;;;;25.07;37.41;97302.97;4214678;28;20113;-59
2023/11/02 05:04:07;;;;;;;;;;;;;;;25.05;37.23;97303.22;4214316;28;19928;-59
2023/11/02 05:06:09;;;;;;;;;;;;;;;25.00;37.68;97321.94;4214578;28;20445;-59
2023/11/02 05:08:11;;;;;;;;;;;;;;;24.97;37.64;97317.84;4214310;28;20065;-58
2023/11/02 05:10:12;;;;;;;;;;;;;;;24.97;37.53;97311.63;4214298;28;20397;-59
2023/11/02 05:12:14;;;;;;;;;;;;;;;24.93;37.61;97321.22;4214204;28;19932;-58
2023/11/02 05:14:16;;;;;;;;;;;;;;;24.91;37.65;97294.56;4214546;28;20356;-59
2023/11/02 05:16:18;;;;;;;;;;;;;;;24.91;37.41;97340.28;4214611;28;19924;-60
2023/11/02 05:18:20;;;;;;;;;;;;;;;24.77;37.60;97298.53;4213839;28;19999;-59
2023/11/02 05:20:23;;;;;;;;;;;;;;;25.00;37.45;97297.72;4214257;28;19930;-59
2023/11/02 05:22:26;;;;;;;;;;;;;;;25.01;37.21;97313.63;4214216;28;20271;-59
2023/11/02 05:24:27;;;;;;;;;;;;;;;24.99;37.29;97296.09;4214330;28;19928;-59
2023/11/02 05:26:31;;;;;;;;;;;;;;;24.99;37.45;97322.97;4214313;28;19959;-59
2023/11/02 05:28:32;;;;;;;;;;;;;;;24.96;37.45;97294.69;4214347;28;19932;-59
2023/11/02 05:30:39;;;;;;;;;;;;;;;24.92;37.45;97285.44;4214309;28;19938;-59
2023/11/02 05:32:42;;;;;;;;;;;;;;;24.91;37.52;97310.69;4213939;28;19924;-59
2023/11/02 05:34:43;;;;;;;;;;;;;;;24.90;37.23;97290.25;4214251;28;20037;-59
2023/11/02 05:36:45;;;;;;;;;;;;;;;24.89;37.55;97283.22;4214267;28;19931;-60
2023/11/02 05:38:49;;;;;;;;;;;;;;;24.88;37.33;97282.38;4214286;28;19946;-59
2023/11/02 05:40:51;;;;;;;;;;;;;;;24.91;37.29;97277.59;4214067;28;19924;-59
2023/11/02 05:42:52;;;;;;;;;;;;;;;24.92;37.57;97272.00;4213920;28;20337;-59
2023/11/02 05:44:54;;;;;;;;;;;;;;;24.95;37.26;97289.56;4213842;28;19931;-60
2023/11/02 05:46:55;;;;;;;;;;;;;;;24.91;37.22;97283.81;4213486;28;19924;-60
2023/11/02 05:48:57;;;;;;;;;;;;;;;24.90;37.36;97281.34;4213875;28;19924;-60
2023/11/02 05:50:59;;;;;;;;;;;;;;;24.91;37.05;97265.00;4213783;28;19924;-59
2023/11/02 05:53:01;;;;;;;;;;;;;;;24.91;37.02;97261.47;4214018;28;20399;-59
2023/11/02 05:55:03;;;;;;;;;;;;;;;24.92;36.97;97271.19;4213962;28;20484;-60
2023/11/02 05:57:05;;;;;;;;;;;;;;;24.85;36.95;97284.75;4214004;28;19963;-59
2023/11/02 05:59:07;;;;;;;;;;;;;;;24.82;36.91;97282.50;4214096;28;19923;-59
2023/11/02 06:01:09;;;;;;;;;;;;;;;24.83;36.90;97284.16;4213634;28;19924;-59
2023/11/02 06:03:10;;;;;;;;;;;;;;;24.85;36.89;97282.88;4213774;28;19924;-60
2023/11/02 06:05:12;;;;;;;;;;;;;;;24.87;37.09;97270.03;4213555;28;20403;-59
2023/11/02 06:07:13;;;;;;;;;;;;;;;24.86;36.99;97281.81;4213782;28;20416;-59
2023/11/02 06:09:15;;;;;;;;;;;;;;;24.90;36.87;97259.84;4213872;28;20258;-59
2023/11/02 06:11:17;;;;;;;;;;;;;;;24.90;36.87;97265.22;4213946;28;19939;-59
2023/11/02 06:13:18;;;;;;;;;;;;;;;24.90;36.77;97267.91;4213975;28;20278;-59
2023/11/02 06:15:20;;;;;;;;;;;;;;;24.91;36.88;97273.06;4213464;28;20030;-59
2023/11/02 06:17:22;;;;;;;;;;;;;;;24.87;36.53;97283.47;4195693;28;20360;-59
2023/11/02 06:19:23;;;;;;;;;;;;;;;24.85;36.95;97276.69;4213595;28;19940;-59
2023/11/02 06:21:25;;;;;;;;;;;;;;;24.82;36.83;97266.38;4213674;28;19931;-60
2023/11/02 06:23:26;;;;;;;;;;;;;;;24.83;36.91;97278.78;4213625;28;19924;-59
2023/11/02 06:25:28;;;;;;;;;;;;;;;24.85;36.96;97282.88;4213755;28;19977;-58
2023/11/02 06:27:29;;;;;;;;;;;;;;;24.90;36.80;97282.19;4213659;28;19931;-58
2023/11/02 06:29:31;;;;;;;;;;;;;;;24.93;36.73;97284.38;4213689;28;19925;-60
2023/11/02 06:31:33;;;;;;;;;;;;;;;24.93;36.63;97281.69;4213494;28;19924;-59
2023/11/02 06:33:34;;;;;;;;;;;;;;;24.95;36.63;97293.03;4213538;28;20019;-59
2023/11/02 06:35:36;;;;;;;;;;;;;;;24.96;36.43;97293.84;4213505;28;20382;-62
2023/11/02 06:37:56;;;;;;;;;;;;;;;24.95;36.48;97289.56;4213626;28;20079;-59
2023/11/02 06:39:59;;;;;;;;;;;;;;;24.93;36.31;97297.03;4213587;28;19931;-58
2023/11/02 06:42:01;;;;;;;;;;;;;;;24.90;36.46;97303.69;4213499;28;20367;-59
2023/11/02 06:44:03;;;;;;;;;;;;;;;24.86;36.48;97310.56;4213441;28;19924;-59
2023/11/02 06:46:05;;;;;;;;;;;;;;;24.82;36.12;97298.63;4213106;28;19959;-61
2023/11/02 06:48:07;;;;;;;;;;;;;;;24.83;36.55;97271.53;4213434;28;20339;-58
2023/11/02 06:50:09;;;;;;;;;;;;;;;24.88;36.34;97295.81;4213609;28;19924;-59
2023/11/02 06:52:10;;;;;;;;;;;;;;;24.88;36.27;97311.16;4213206;28;20023;-59
2023/11/02 06:54:12;;;;;;;;;;;;;;;24.85;36.21;97307.06;4213492;28;19925;-59
2023/11/02 06:56:14;;;;;;;;;;;;;;;24.91;36.45;97305.31;4213525;28;20055;-59
2023/11/02 06:58:17;;;;;;;;;;;;;;;24.91;36.03;97291.06;4212879;28;20413;-59
2023/11/02 07:00:20;;;;;;;;;;;;;;;24.91;36.27;97289.19;4213238;28;19924;-62
2023/11/02 07:02:24;;;;;;;;;;;;;;;24.94;36.25;97302.16;4213368;28;19924;-61
2023/11/02 07:04:26;;;;;;;;;;;;;;;24.92;36.06;97304.25;4213330;28;20018;-61
2023/11/02 07:06:28;;;;;;;;;;;;;;;24.90;35.99;97305.53;4213391;28;19931;-61
2023/11/02 07:08:30;;;;;;;;;;;;;;;24.90;36.21;97298.31;4213285;28;20367;-61
2023/11/02 07:10:31;;;;;;;;;;;;;;;24.88;36.28;97319.22;4213536;28;19931;-61
2023/11/02 07:12:33;;;;;;;;;;;;;;;24.85;36.16;97317.00;4213470;28;19928;-62
2023/11/02 07:14:35;;;;;;;;;;;;;;;24.81;36.24;97310.44;4216000;28;19935;-60
2023/11/02 07:16:37;;;;;;;;;;;;;;;24.80;35.90;97316.84;4216208;28;19928;-61
2023/11/02 07:18:38;;;;;;;;;;;;;;;24.80;36.26;97296.19;4216245;28;19928;-61
2023/11/02 07:20:40;;;;;;;;;;;;;;;24.83;36.17;97286.84;4216274;28;20369;-61
2023/11/02 07:22:42;;;;;;;;;;;;;;;24.87;35.96;97286.16;4216228;28;19978;-61
2023/11/02 07:24:43;;;;;;;;;;;;;;;24.87;36.26;97317.56;4216276;28;19924;-61
2023/11/02 07:26:45;;;;;;;;;;;;;;;24.82;36.04;97307.50;4216191;28;19924;-61
2023/11/02 07:28:46;;;;;;;;;;;;;;;24.78;36.14;97313.59;4215876;28;19990;-62
2023/11/02 07:30:48;;;;;;;;;;;;;;;24.76;36.07;97308.44;4216211;28;19969;-61
2023/11/02 07:32:49;;;;;;;;;;;;;;;24.73;36.03;97327.72;4215984;28;19924;-61
2023/11/02 07:34:51;;;;;;;;;;;;;;;24.74;36.14;97315.94;4215989;28;19977;-60
2023/11/02 07:36:54;;;;;;;;;;;;;;;24.76;36.00;97347.94;4216032;28;19924;-61
2023/11/02 07:38:55;;;;;;;;;;;;;;;24.72;35.99;97343.00;4216077;28;19928;-61
2023/11/02 07:40:57;;;;;;;;;;;;;;;24.72;36.03;97350.25;4215856;28;20011;-61
2023/11/02 07:42:58;;;;;;;;;;;;;;;24.77;35.88;97357.63;4215579;28;19924;-61
2023/11/02 07:45:00;;;;;;;;;;;;;;;24.84;36.05;97345.72;4216066;28;20402;-61
2023/11/02 07:47:02;;;;;;;;;;;;;;;24.84;35.63;97350.31;4215947;28;19924;-61
2023/11/02 07:49:03;;;;;;;;;;;;;;;24.81;36.01;97356.97;4215625;28;19924;-61
2023/11/02 07:51:05;;;;;;;;;;;;;;;24.79;35.59;97368.97;4216039;28;19928;-61
2023/11/02 07:53:07;;;;;;;;;;;;;;;24.74;35.91;97360.78;4215920;28;19924;-61
2023/11/02 07:55:09;;;;;;;;;;;;;;;24.71;36.00;97354.00;4216054;28;19951;-61
2023/11/02 07:57:11;;;;;;;;;;;;;;;24.69;35.49;97348.84;4215604;28;19962;-61
2023/11/02 07:59:13;;;;;;;;;;;;;;;24.69;35.92;97348.00;4215768;28;19928;-61
2023/11/02 08:01:15;;;;;;;;;;;;;;;24.73;35.93;97384.16;4215597;28;20118;-61
2023/11/02 08:03:17;;;;;;;;;;;;;;;24.74;35.63;97347.34;4215622;28;19953;-61
2023/11/02 08:05:18;;;;;;;;;;;;;;;24.69;35.88;97348.00;4215732;28;19928;-61
2023/11/02 08:07:20;;;;;;;;;;;;;;;24.74;36.03;97328.53;4215746;28;19924;-62
2023/11/02 08:09:22;;;;;;;;;;;;;;;24.77;35.48;97361.13;4197528;28;19929;-61
2023/11/02 08:11:24;;;;;;;;;;;;;;;24.76;35.60;97358.69;4197244;28;19929;-61
2023/11/02 08:13:25;;;;;;;;;;;;;;;24.70;35.73;97365.78;4215694;28;19958;-61
2023/11/02 08:15:27;;;;;;;;;;;;;;;24.67;35.60;97352.81;4215458;28;19969;-62
2023/11/02 08:17:29;;;;;;;;;;;;;;;24.69;35.93;97391.00;4215274;28;20189;-61
2023/11/02 08:19:30;;;;;;;;;;;;;;;24.67;35.59;97364.38;4215351;28;19924;-61
2023/11/02 08:21:32;;;;;;;;;;;;;;;24.71;35.79;97362.06;4215312;28;20356;-61
2023/11/02 08:23:33;;;;;;;;;;;;;;;24.69;35.40;97345.34;4215340;28;19924;-61
2023/11/02 08:25:35;;;;;;;;;;;;;;;24.72;35.92;97364.50;4214217;28;19935;-61
2023/11/02 08:27:37;;;;;;;;;;;;;;;24.73;35.38;97338.47;4215080;28;20420;-61
2023/11/02 08:29:39;;;;;;;;;;;;;;;24.69;35.37;97338.09;4197245;28;19931;-61
2023/11/02 08:31:40;;;;;;;;;;;;;;;24.66;35.65;97327.81;4215384;28;19924;-61
2023/11/02 08:33:42;;;;;;;;;;;;;;;24.64;35.84;97324.50;4215093;28;19924;-61
2023/11/02 08:35:44;;;;;;;;;;;;;;;24.67;35.72;97326.75;4215267;28;19931;-61
2023/11/02 08:37:46;;;;;;;;;;;;;;;24.63;35.34;97322.88;4215174;28;20003;-61
2023/11/02 08:39:48;;;;;;;;;;;;;;;24.61;35.91;97327.66;4215127;28;20037;-61
2023/11/02 08:41:49;;;;;;;;;;;;;;;24.61;35.72;97332.22;4214434;28;19934;-61
2023/11/02 08:43:51;;;;;;;;;;;;;;;24.64;35.33;97312.94;4214841;28;19924;-61
2023/11/02 08:45:52;;;;;;;;;;;;;;;24.64;35.88;97324.50;4214962;28;19935;-61
2023/11/02 08:47:54;;;;;;;;;;;;;;;24.63;35.39;97312.13;4214954;28;20019;-61
2023/11/02 08:49:55;;;;;;;;;;;;;;;24.65;35.44;97312.69;4214526;28;19928;-60
2023/11/02 08:51:57;;;;;;;;;;;;;;;24.71;35.37;97321.75;4214908;28;19928;-61
2023/11/02 08:54:01;;;;;;;;;;;;;;;24.69;35.23;97323.84;4214767;28;19925;-60
2023/11/02 08:56:03;;;;;;;;;;;;;;;24.69;35.13;97345.34;4214499;28;19970;-61
2023/11/02 08:58:04;;;;;;;;;;;;;;;24.69;35.24;97370.34;4214558;28;19989;-61
2023/11/02 09:00:07;;;;;;;;;;;;;;;24.67;35.05;97358.19;4214805;28;19928;-60
2023/11/02 09:02:10;;;;;;;;;;;;;;;24.68;35.41;97375.94;4214567;28;19924;-61
2023/11/02 09:04:16;;;;;;;;;;;;;;;24.67;35.48;97368.94;4214631;28;19924;-61
2023/11/02 09:06:19;;;;;;;;;;;;;;;24.66;35.09;97381.53;4196410;28;19924;-61
2023/11/02 09:08:21;;;;;;;;;;;;;;;24.68;35.14;97413.56;4214643;28;19928;-61
2023/11/02 09:10:23;;;;;;;;;;;;;;;24.66;35.08;97378.03;4214214;28;19925;-61
2023/11/02 09:12:24;;;;;;;;;;;;;;;24.67;35.26;97350.94;4214300;28;19928;-61
2023/11/02 09:14:26;;;;;;;;;;;;;;;24.69;34.95;97380.25;4214343;28;19928;-61
2023/11/02 09:16:27;;;;;;;;;;;;;;;24.70;35.06;97376.53;4214480;28;19930;-61
2023/11/02 09:18:30;;;;;;;;;;;;;;;24.68;34.93;97381.31;4214148;28;19924;-61
2023/11/02 09:20:31;;;;;;;;;;;;;;;24.67;34.97;97382.38;4214384;28;20013;-61
2023/11/02 09:22:33;;;;;;;;;;;;;;;24.64;34.70;97380.94;4214029;28;19928;-61
2023/11/02 09:24:35;;;;;;;;;;;;;;;24.61;35.02;97392.13;4214161;28;19924;-61
2023/11/02 09:26:39;;;;;;;;;;;;;;;24.60;34.75;97411.97;4214350;28;19931;-61
2023/11/02 09:28:40;;;;;;;;;;;;;;;24.62;34.87;97399.16;4196414;28;19928;-61
2023/11/02 09:30:42;;;;;;;;;;;;;;;24.61;34.88;97384.06;4196215;28;19925;-60
2023/11/02 09:32:44;;;;;;;;;;;;;;;24.62;34.65;97412.59;4196486;28;19931;-60
2023/11/02 09:34:46;;;;;;;;;;;;;;;24.62;34.69;97427.88;4213902;28;19928;-61
2023/11/02 09:36:48;;;;;;;;;;;;;;;24.61;34.58;97420.88;4214247;28;20389;-61
2023/11/02 09:38:56;;;;;;;;;;;;;;;24.60;34.56;97405.78;4214025;28;20059;-62
2023/11/02 09:41:02;;;;;;;;;;;;;;;24.59;34.34;97429.13;4214006;28;20011;-60
2023/11/02 09:43:09;;;;;;;;;;;;;;;24.62;34.38;97423.34;4214060;28;19930;-61
2023/11/02 09:45:12;;;;;;;;;;;;;;;24.63;34.39;97429.50;4214346;28;20007;-61
2023/11/02 09:47:13;;;;;;;;;;;;;;;24.62;34.51;97417.13;4213840;28;19977;-60
2023/11/02 09:49:15;;;;;;;;;;;;;;;24.65;34.25;97438.19;4213944;28;19924;-61
2023/11/02 09:51:23;;;;;;;;;;;;;;;24.64;34.58;97452.66;4213858;28;20356;-61
2023/11/02 09:53:28;;;;;;;;;;;;;;;24.63;34.61;97427.66;4213569;28;19931;-60
2023/11/02 09:55:29;;;;;;;;;;;;;;;24.65;34.31;97447.03;4213924;28;20006;-60
2023/11/02 09:57:31;;;;;;;;;;;;;;;24.61;34.55;97437.81;4213900;28;19924;-60
2023/11/02 09:59:33;;;;;;;;;;;;;;;24.64;34.18;97442.75;4213883;28;20419;-60
2023/11/02 10:01:35;;;;;;;;;;;;;;;24.68;34.51;97427.81;4213705;28;20348;-60
2023/11/02 10:03:42;;;;;;;;;;;;;;;24.67;34.44;97450.38;4213751;28;19924;-60
2023/11/02 10:05:49;;;;;;;;;;;;;;;24.67;34.21;97446.88;4213706;28;20392;-60
2023/11/02 10:07:56;;;;;;;;;;;;;;;24.68;34.29;97452.00;4213374;28;19971;-60
2023/11/02 10:09:58;;;;;;;;;;;;;;;24.69;34.10;97460.88;4211382;28;19924;-60
2023/11/02 10:11:59;;;;;;;;;;;;;;;24.68;34.16;97460.06;4206637;28;20007;-59
2023/11/02 10:14:04;;;;;;;;;;;;;;;24.66;34.73;97470.22;4202250;28;19924;-57
2023/11/02 10:16:05;;;;;;;;;;;;;;;24.38;34.61;97470.72;4205413;28;19935;-60
2023/11/02 10:18:14;;;;;;;;;;;;;;;24.08;34.54;97490.25;4206363;28;19928;-63
2023/11/02 10:20:17;;;;;;;;;;;;;;;23.79;34.17;97463.00;4208428;28;19924;-61
2023/11/02 10:22:21;;;;;;;;;;;;;;;23.63;34.04;97471.63;4200926;28;19928;-59
2023/11/02 10:24:30;;;;;;;;;;;;;;;23.22;33.15;97449.63;4197612;28;20007;-57
2023/11/02 10:26:34;;;;;;;;;;;;;;;23.03;33.89;97473.66;4209472;28;19936;-58
2023/11/02 10:28:35;;;;;;;;;;;;;;;23.16;33.92;97501.41;4206664;28;19925;-58
2023/11/02 10:30:37;;;;;;;;;;;;;;;23.14;33.24;97493.59;4205931;28;20007;-57
2023/11/02 10:32:39;;;;;;;;;;;;;;;23.02;34.11;97496.13;4209388;28;19929;-57
2023/11/02 10:34:42;;;;;;;;;;;;;;;23.04;34.38;97534.25;4206213;28;19966;-58
2023/11/02 10:36:44;;;;;;;;;;;;;;;23.01;34.08;97490.97;4204244;28;19959;-58
2023/11/02 10:38:46;;;;;;;;;;;;;;;23.03;34.03;97521.88;4204339;28;19924;-58
2023/11/02 10:40:50;;;;;;;;;;;;;;;22.84;33.94;97523.63;4212316;28;19929;-56
2023/11/02 10:42:55;;;;;;;;;;;;;;;22.63;34.16;97512.16;4207760;28;19930;-58
2023/11/02 10:44:57;;;;;;;;;;;;;;;22.60;33.60;97501.03;4196767;28;19994;-58
2023/11/02 10:47:00;;;;;;;;;;;;;;;22.33;33.83;97515.31;4202175;28;19931;-58